Time;durP1;ratioP1;P1;durP2;ratioP2;P2;SDS_P1;SDS_P2;PMS_P1;PMS_P2;Temp;Humidity;BMP_temperature;BMP_pressure;BME280_temperature;BME280_humidity;BME280_pressure;Samples;Min_cycle;Max_cycle;Signal;HPM_P1;HPM_P2
2022/04/25 00:01:44;;;;;;;1.45;0.60;;;10.30;75.80;;;;;;5032986;28;20191;-63
2022/04/25 00:04:11;;;;;;;1.50;0.65;;;10.30;75.80;;;;;;5032626;28;20226;-63
2022/04/25 00:06:38;;;;;;;1.50;0.50;;;10.20;75.70;;;;;;5032877;28;20249;-63
2022/04/25 00:09:06;;;;;;;1.50;0.60;;;10.30;76.00;;;;;;5032877;28;20187;-63
2022/04/25 00:11:34;;;;;;;1.40;0.50;;;10.20;76.10;;;;;;5032986;28;20225;-64
2022/04/25 00:14:01;;;;;;;1.40;0.70;;;10.20;76.10;;;;;;5032516;28;20654;-64
2022/04/25 00:16:28;;;;;;;1.40;0.60;;;10.20;76.10;;;;;;5033051;28;20233;-63
2022/04/25 00:18:55;;;;;;;1.40;0.60;;;10.20;76.30;;;;;;5032827;28;20218;-63
2022/04/25 00:21:22;;;;;;;1.40;0.60;;;10.20;77.00;;;;;;5032936;28;20601;-67
2022/04/25 00:23:49;;;;;;;1.40;0.50;;;10.20;76.50;;;;;;5032530;28;20270;-63
2022/04/25 00:26:18;;;;;;;1.50;0.70;;;10.20;76.80;;;;;;5032554;28;20194;-63
2022/04/25 00:28:45;;;;;;;1.60;0.60;;;10.20;76.50;;;;;;5032150;28;20194;-63
2022/04/25 00:31:13;;;;;;;1.40;0.60;;;10.20;77.00;;;;;;5032501;28;20215;-63
2022/04/25 00:33:40;;;;;;;1.40;0.60;;;10.10;76.80;;;;;;5032391;28;20191;-64
2022/04/25 00:36:08;;;;;;;1.40;0.50;;;10.20;77.00;;;;;;5032627;28;20241;-63
2022/04/25 00:38:35;;;;;;;1.40;0.57;;;10.20;77.20;;;;;;5032297;28;20277;-63
2022/04/25 00:41:02;;;;;;;1.40;0.60;;;10.20;76.60;;;;;;5032301;28;20258;-63
2022/04/25 00:43:31;;;;;;;1.40;0.50;;;10.20;76.60;;;;;;5032626;28;20273;-64
2022/04/25 00:45:58;;;;;;;1.40;0.52;;;10.20;76.90;;;;;;5032308;28;20217;-64
2022/04/25 00:48:25;;;;;;;1.42;0.60;;;10.30;77.00;;;;;;5032560;28;20195;-63
2022/04/25 00:50:52;;;;;;;3.45;0.60;;;10.30;77.00;;;;;;5032386;28;20187;-63
2022/04/25 00:53:19;;;;;;;1.40;0.60;;;10.20;76.90;;;;;;5032526;28;20223;-63
2022/04/25 00:55:47;;;;;;;1.50;0.60;;;10.20;76.70;;;;;;5032568;28;20199;-63
2022/04/25 00:58:14;;;;;;;1.40;0.70;;;10.20;76.50;;;;;;5032124;28;20187;-64
2022/04/25 01:00:43;;;;;;;1.50;0.50;;;10.10;76.90;;;;;;5032185;28;20230;-63
2022/04/25 01:03:13;;;;;;;1.50;0.60;;;10.10;76.70;;;;;;5032033;28;20194;-63
2022/04/25 01:05:40;;;;;;;1.50;0.60;;;10.20;76.60;;;;;;5032371;28;20190;-63
2022/04/25 01:08:08;;;;;;;1.40;0.60;;;10.10;76.90;;;;;;5033660;28;20219;-63
2022/04/25 01:10:35;;;;;;;1.40;0.55;;;10.10;77.00;;;;;;5035810;28;20249;-63
2022/04/25 01:13:02;;;;;;;1.40;0.52;;;10.10;78.10;;;;;;5036334;28;20265;-64
2022/04/25 01:15:31;;;;;;;1.70;0.60;;;10.10;77.50;;;;;;5036070;28;20195;-64
2022/04/25 01:17:59;;;;;;;1.42;0.60;;;10.10;77.40;;;;;;5036291;28;20691;-63
2022/04/25 01:20:26;;;;;;;1.73;0.70;;;10.20;77.40;;;;;;5036002;28;20244;-64
2022/04/25 01:27:15;;;;;;;1.40;0.60;;;10.20;77.10;;;;;;5036418;28;20198;-63
2022/04/25 01:28:31;;;;;;;1.40;0.60;;;10.30;76.60;;;;;;5035772;28;20656;-64
2022/04/25 01:30:58;;;;;;;1.40;0.60;;;10.30;76.60;;;;;;5035680;28;20183;-64
2022/04/25 01:33:25;;;;;;;1.40;0.60;;;10.30;76.40;;;;;;5035980;28;20317;-63
2022/04/25 01:35:52;;;;;;;1.63;0.70;;;10.30;76.20;;;;;;5035462;28;20183;-63
2022/04/25 01:38:19;;;;;;;1.67;0.70;;;10.40;76.50;;;;;;5035769;28;20191;-63
2022/04/25 01:40:47;;;;;;;1.40;0.60;;;10.40;76.70;;;;;;5035319;28;20191;-64
2022/04/25 01:43:14;;;;;;;1.50;0.60;;;10.30;77.00;;;;;;5035979;28;20187;-63
2022/04/25 01:45:41;;;;;;;2.03;0.60;;;10.40;77.40;;;;;;5035567;28;20215;-63
2022/04/25 01:48:09;;;;;;;1.60;0.60;;;10.40;76.90;;;;;;5035605;28;20195;-63
2022/04/25 01:50:36;;;;;;;1.40;0.70;;;10.40;76.60;;;;;;5035624;28;20183;-63
2022/04/25 01:53:03;;;;;;;1.40;0.60;;;10.40;76.90;;;;;;5035469;28;20305;-63
2022/04/25 01:55:30;;;;;;;1.40;0.60;;;10.40;76.70;;;;;;5035236;28;20237;-63
2022/04/25 01:57:59;;;;;;;1.40;0.60;;;10.40;76.40;;;;;;5035448;28;20197;-63
2022/04/25 02:00:26;;;;;;;1.40;0.50;;;10.40;76.50;;;;;;5035287;28;20241;-63
2022/04/25 02:02:53;;;;;;;1.40;0.57;;;10.40;76.60;;;;;;5035458;28;20528;-63
2022/04/25 02:05:20;;;;;;;1.50;0.70;;;10.40;76.60;;;;;;5034507;28;20195;-63
2022/04/25 02:07:47;;;;;;;1.40;0.60;;;10.50;76.70;;;;;;5035024;28;20605;-63
2022/04/25 02:10:14;;;;;;;1.60;0.60;;;10.50;76.40;;;;;;5035115;28;20626;-63
2022/04/25 02:12:44;;;;;;;1.40;0.50;;;10.50;76.40;;;;;;5034769;28;20218;-63
2022/04/25 02:15:13;;;;;;;1.40;0.60;;;10.50;76.60;;;;;;5035036;28;20650;-63
2022/04/25 02:17:41;;;;;;;1.60;0.63;;;10.50;76.10;;;;;;5034636;28;20191;-64
2022/04/25 02:20:10;;;;;;;1.40;0.60;;;10.50;76.00;;;;;;5033812;28;20195;-63
2022/04/25 02:22:37;;;;;;;1.42;0.68;;;10.50;76.30;;;;;;5034535;28;20659;-63
2022/04/25 02:25:05;;;;;;;1.80;0.70;;;10.40;76.10;;;;;;5035033;28;20555;-64
2022/04/25 02:27:32;;;;;;;1.40;0.60;;;10.40;76.20;;;;;;5034435;28;20183;-63
2022/04/25 02:29:59;;;;;;;14.10;8.50;;;10.40;76.40;;;;;;5034716;28;20322;-63
2022/04/25 02:32:30;;;;;;;11.07;6.35;;;10.40;76.60;;;;;;5034314;28;20731;-64
2022/04/25 02:34:57;;;;;;;5.55;1.90;;;10.40;76.60;;;;;;5034721;28;20241;-64
2022/04/25 02:37:25;;;;;;;1.60;0.70;;;10.40;76.60;;;;;;5034325;28;20179;-63
2022/04/25 02:39:53;;;;;;;1.40;0.60;;;10.50;76.70;;;;;;5034686;28;20195;-63
2022/04/25 02:42:20;;;;;;;1.70;0.60;;;10.50;76.60;;;;;;5034132;28;20221;-63
2022/04/25 02:44:48;;;;;;;1.60;0.85;;;10.50;76.80;;;;;;5034641;28;20202;-63
2022/04/25 02:47:15;;;;;;;1.50;0.70;;;10.40;76.70;;;;;;5034429;28;20202;-63
2022/04/25 02:49:43;;;;;;;1.50;0.60;;;10.50;76.40;;;;;;5034682;28;20194;-63
2022/04/25 02:52:10;;;;;;;1.40;0.60;;;10.40;76.30;;;;;;5034180;28;20301;-63
2022/04/25 02:54:38;;;;;;;1.40;0.50;;;10.50;76.40;;;;;;5034238;28;20622;-63
2022/04/25 02:57:05;;;;;;;1.50;0.57;;;10.50;76.40;;;;;;5034257;28;20188;-63
2022/04/25 02:59:32;;;;;;;1.40;0.60;;;10.50;76.90;;;;;;5034076;28;20211;-64
2022/04/25 03:01:59;;;;;;;1.80;0.60;;;10.50;76.60;;;;;;5034311;28;20241;-63
2022/04/25 03:04:26;;;;;;;1.40;0.60;;;10.50;76.50;;;;;;5034130;28;20238;-64
2022/04/25 03:06:55;;;;;;;1.40;0.60;;;10.50;76.10;;;;;;5034393;28;20237;-64
2022/04/25 03:09:23;;;;;;;2.45;0.70;;;10.50;76.10;;;;;;5034093;28;20612;-63
2022/04/25 03:11:51;;;;;;;2.30;0.68;;;10.50;76.00;;;;;;5034159;28;20195;-64
2022/04/25 03:14:18;;;;;;;1.50;0.55;;;10.50;75.90;;;;;;5033713;28;20198;-63
2022/04/25 03:16:45;;;;;;;1.60;0.70;;;10.50;76.10;;;;;;5034164;28;20206;-63
2022/04/25 03:19:12;;;;;;;1.48;0.80;;;10.60;75.70;;;;;;5033724;28;20199;-64
2022/04/25 03:21:39;;;;;;;1.50;0.70;;;10.60;75.90;;;;;;5033613;28;20234;-64
2022/04/25 03:24:08;;;;;;;1.50;0.50;;;10.60;75.80;;;;;;5033786;28;20187;-63
2022/04/25 03:26:37;;;;;;;1.40;0.60;;;10.60;76.20;;;;;;5033697;28;20202;-64
2022/04/25 03:29:04;;;;;;;1.40;0.60;;;10.60;75.40;;;;;;5033579;28;20194;-64
2022/04/25 03:31:31;;;;;;;1.40;0.60;;;10.60;75.40;;;;;;5033122;28;20550;-64
2022/04/25 03:33:58;;;;;;;1.42;0.70;;;10.60;75.60;;;;;;5033956;28;20309;-63
2022/04/25 03:36:26;;;;;;;1.48;0.70;;;10.60;76.00;;;;;;5033659;28;20210;-64
2022/04/25 03:38:53;;;;;;;1.45;0.60;;;10.60;75.60;;;;;;5033925;28;20549;-63
2022/04/25 03:41:21;;;;;;;1.40;0.60;;;10.60;76.20;;;;;;5033016;28;20223;-69
2022/04/25 03:43:49;;;;;;;3.15;0.60;;;10.70;75.50;;;;;;5033623;28;20622;-63
2022/04/25 03:46:16;;;;;;;1.40;0.57;;;10.70;75.40;;;;;;5033430;28;20202;-63
2022/04/25 03:48:44;;;;;;;1.63;0.70;;;10.70;75.30;;;;;;5033213;28;20190;-63
2022/04/25 03:51:11;;;;;;;1.48;0.73;;;10.70;75.30;;;;;;5033560;28;20191;-63
2022/04/25 03:53:38;;;;;;;1.50;0.60;;;10.60;75.00;;;;;;5033159;28;20685;-63
2022/04/25 03:58:51;;;;;;;1.75;0.70;;;10.70;75.00;;;;;;5033080;28;20206;-64
2022/04/25 04:01:18;;;;;;;1.75;0.70;;;10.70;74.70;;;;;;5033459;28;20195;-63
2022/04/25 04:03:46;;;;;;;1.45;0.65;;;10.60;74.50;;;;;;5033129;28;20187;-63
2022/04/25 04:06:15;;;;;;;1.55;0.70;;;10.60;74.40;;;;;;5033173;28;20278;-64
2022/04/25 04:08:42;;;;;;;1.55;0.77;;;10.60;74.20;;;;;;5033220;28;20209;-63
2022/04/25 04:11:09;;;;;;;1.80;0.75;;;10.60;74.00;;;;;;5033297;28;20255;-67
2022/04/25 04:13:37;;;;;;;1.73;0.82;;;10.70;74.30;;;;;;5032698;28;20295;-63
2022/04/25 04:16:05;;;;;;;1.50;0.70;;;10.70;75.10;;;;;;5033221;28;20198;-65
2022/04/25 04:18:32;;;;;;;1.50;0.68;;;10.70;74.10;;;;;;5032940;28;20182;-64
2022/04/25 04:21:00;;;;;;;1.50;0.80;;;10.60;73.60;;;;;;5033179;28;20195;-63
2022/04/25 04:23:27;;;;;;;2.15;0.70;;;10.60;74.40;;;;;;5032811;28;20189;-63
2022/04/25 04:25:54;;;;;;;1.50;0.60;;;10.60;74.90;;;;;;5032709;28;20191;-65
2022/04/25 04:28:21;;;;;;;1.50;0.70;;;10.70;75.00;;;;;;5032722;28;20692;-63
2022/04/25 04:30:48;;;;;;;1.50;0.70;;;10.60;74.60;;;;;;5033048;28;20222;-64
2022/04/25 04:33:16;;;;;;;2.50;0.80;;;10.70;74.00;;;;;;5032620;28;20211;-63
2022/04/25 04:38:28;;;;;;;1.67;0.70;;;10.70;74.70;;;;;;5032515;28;20256;-63
2022/04/25 04:40:55;;;;;;;1.50;0.70;;;10.70;74.90;;;;;;5032667;28;20195;-63
2022/04/25 04:43:22;;;;;;;1.40;0.70;;;10.70;74.30;;;;;;5031795;28;20183;-63
2022/04/25 04:45:49;;;;;;;1.50;0.70;;;10.70;74.10;;;;;;5032844;28;20257;-63
2022/04/25 04:48:18;;;;;;;1.90;0.85;;;10.70;74.10;;;;;;5032435;28;20241;-63
2022/04/25 04:50:45;;;;;;;2.30;0.90;;;10.70;74.30;;;;;;5032233;28;20187;-63
2022/04/25 04:53:12;;;;;;;1.67;0.70;;;10.70;74.50;;;;;;5032402;28;20242;-63
2022/04/25 04:55:39;;;;;;;1.50;0.70;;;10.80;75.60;;;;;;5032103;28;20187;-63
2022/04/25 04:58:06;;;;;;;1.50;0.70;;;10.80;74.70;;;;;;5032340;28;20237;-63
2022/04/25 05:00:33;;;;;;;1.90;0.90;;;10.80;74.70;;;;;;5032689;28;20244;-63
2022/04/25 05:03:00;;;;;;;1.50;0.73;;;10.80;74.50;;;;;;5032411;28;20265;-63
2022/04/25 05:05:29;;;;;;;3.22;0.80;;;10.80;74.20;;;;;;5032380;28;20217;-67
2022/04/25 05:07:56;;;;;;;2.03;0.70;;;10.90;74.40;;;;;;5031782;28;20273;-64
2022/04/25 05:10:23;;;;;;;1.67;0.70;;;10.90;74.50;;;;;;5031912;28;20285;-64
2022/04/25 05:12:54;;;;;;;1.70;0.85;;;10.90;74.40;;;;;;5031520;28;20215;-63
2022/04/25 05:15:21;;;;;;;1.90;0.85;;;11.00;74.40;;;;;;5032128;28;20285;-63
2022/04/25 05:17:50;;;;;;;1.50;0.93;;;11.00;74.40;;;;;;5031876;28;20597;-63
2022/04/25 05:20:17;;;;;;;1.83;0.70;;;11.00;75.40;;;;;;5029519;28;20198;-65
2022/04/25 05:22:47;;;;;;;2.10;1.00;;;11.10;75.00;;;;;;5031947;28;20716;-63
2022/04/25 05:25:15;;;;;;;2.70;1.27;;;11.10;75.00;;;;;;5032097;28;20278;-64
2022/04/25 05:27:43;;;;;;;2.70;1.15;;;11.10;74.40;;;;;;5032355;28;20286;-64
2022/04/25 05:30:11;;;;;;;1.80;0.93;;;11.10;74.90;;;;;;5032072;28;20642;-63
2022/04/25 05:32:44;;;;;;;2.15;1.00;;;11.10;75.10;;;;;;5031767;28;20198;-64
2022/04/25 05:35:12;;;;;;;2.00;0.90;;;11.20;75.40;;;;;;5031915;28;20187;-63
2022/04/25 05:37:39;;;;;;;1.80;0.90;;;11.30;75.20;;;;;;5032250;28;20195;-63
2022/04/25 05:40:08;;;;;;;1.70;1.05;;;11.40;75.40;;;;;;5031652;28;20298;-63
2022/04/25 05:42:36;;;;;;;2.60;0.80;;;11.50;75.60;;;;;;5031652;28;20733;-64
2022/04/25 05:45:05;;;;;;;1.75;1.10;;;11.60;75.90;;;;;;5031376;28;20211;-64
2022/04/25 05:47:33;;;;;;;1.50;0.75;;;11.80;75.60;;;;;;5030961;28;20539;-65
2022/04/25 05:52:44;;;;;;;2.67;1.13;;;12.30;74.90;;;;;;5030280;28;20544;-63
2022/04/25 05:55:12;;;;;;;1.90;0.90;;;12.50;74.10;;;;;;5033687;28;20198;-63
2022/04/25 05:57:41;;;;;;;2.13;1.05;;;12.70;73.90;;;;;;5034855;28;20290;-63
2022/04/25 06:00:09;;;;;;;1.60;0.80;;;12.80;72.10;;;;;;5025756;28;20273;-64
2022/04/25 06:02:38;;;;;;;2.67;1.00;;;12.80;71.40;;;;;;5034051;28;20549;-64
2022/04/25 06:05:06;;;;;;;1.90;0.90;;;12.90;71.20;;;;;;5034433;28;20187;-64
2022/04/25 06:07:34;;;;;;;4.30;1.30;;;13.00;70.40;;;;;;5035415;28;20441;-63
2022/04/25 06:10:02;;;;;;;1.80;1.10;;;13.10;70.00;;;;;;5034216;28;20533;-65
2022/04/25 06:12:30;;;;;;;2.67;1.10;;;13.20;69.50;;;;;;5031802;28;20446;-63
2022/04/25 06:14:59;;;;;;;1.60;0.80;;;13.30;69.20;;;;;;5031443;28;20492;-63
2022/04/25 06:17:27;;;;;;;2.10;1.03;;;13.30;69.20;;;;;;5033909;28;20484;-61
2022/04/25 06:19:54;;;;;;;2.00;1.40;;;13.30;67.90;;;;;;5033471;28;20445;-61
2022/04/25 06:22:21;;;;;;;2.30;1.40;;;13.40;68.10;;;;;;5034969;28;20496;-62
2022/04/25 06:24:49;;;;;;;2.27;1.50;;;13.40;67.40;;;;;;5034071;28;20477;-62
2022/04/25 06:27:16;;;;;;;2.53;1.40;;;13.40;67.10;;;;;;5033898;28;20434;-62
2022/04/25 06:29:46;;;;;;;2.53;1.50;;;13.40;66.70;;;;;;5032734;28;20442;-62
2022/04/25 06:32:13;;;;;;;2.27;1.30;;;13.40;66.90;;;;;;5034149;28;20853;-63
2022/04/25 06:34:41;;;;;;;2.37;1.50;;;13.40;66.80;;;;;;5033947;28;20571;-64
2022/04/25 06:37:09;;;;;;;3.47;1.60;;;13.40;66.80;;;;;;5034104;28;20841;-64
2022/04/25 06:39:36;;;;;;;2.70;1.63;;;13.50;66.70;;;;;;5034508;28;20465;-68
2022/04/25 06:42:04;;;;;;;2.57;1.63;;;13.70;68.20;;;;;;5033416;28;20560;-65
2022/04/25 06:44:32;;;;;;;4.30;2.13;;;13.90;67.80;;;;;;5034950;28;20437;-64
2022/04/25 06:47:01;;;;;;;3.33;1.60;;;14.10;64.90;;;;;;5034481;28;20465;-64
2022/04/25 06:49:28;;;;;;;2.43;1.30;;;14.20;64.30;;;;;;5033788;28;20442;-65
2022/04/25 06:51:57;;;;;;;4.30;1.67;;;14.10;62.60;;;;;;5033710;28;20434;-63
2022/04/25 06:54:25;;;;;;;3.43;1.87;;;14.00;63.90;;;;;;5033904;28;20477;-64
2022/04/25 06:56:52;;;;;;;2.63;1.63;;;14.00;64.70;;;;;;5033485;28;20442;-64
2022/04/25 06:59:20;;;;;;;4.13;2.17;;;14.00;63.70;;;;;;5034466;28;20440;-63
2022/04/25 07:01:47;;;;;;;6.23;1.50;;;14.00;63.20;;;;;;5034345;28;20457;-64
2022/04/25 07:04:16;;;;;;;4.10;1.80;;;14.00;63.60;;;;;;5034227;28;20485;-64
2022/04/25 07:06:44;;;;;;;2.10;1.20;;;14.10;63.50;;;;;;5033293;28;20434;-64
2022/04/25 07:09:12;;;;;;;4.00;2.07;;;14.10;63.20;;;;;;5034455;28;20457;-64
2022/04/25 07:11:41;;;;;;;2.97;1.60;;;14.10;63.70;;;;;;5033003;28;20861;-63
2022/04/25 07:14:08;;;;;;;4.50;3.23;;;14.10;63.00;;;;;;5033897;28;20480;-64
2022/04/25 07:16:35;;;;;;;4.60;3.03;;;14.10;62.90;;;;;;5033887;28;20448;-64
2022/04/25 07:19:02;;;;;;;3.23;2.33;;;14.30;63.80;;;;;;5033996;28;20821;-64
2022/04/25 07:29:47;;;;;;;5.27;3.50;;;15.00;60.50;;;;;;5031643;28;20460;-64
2022/04/25 07:32:15;;;;;;;3.57;2.73;;;15.00;59.70;;;;;;5030701;28;20476;-63
2022/04/25 07:34:43;;;;;;;3.90;2.90;;;15.10;59.20;;;;;;5031910;28;20972;-64
2022/04/25 07:37:12;;;;;;;4.03;2.93;;;15.20;59.60;;;;;;5032213;28;20442;-64
2022/04/25 07:39:39;;;;;;;4.90;3.30;;;15.40;60.80;;;;;;5032792;28;20469;-64
2022/04/25 07:42:06;;;;;;;3.90;3.13;;;15.70;59.50;;;;;;5028709;28;20964;-64
2022/04/25 07:44:33;;;;;;;5.30;4.13;;;15.90;57.70;;;;;;5031782;28;20508;-64
2022/04/25 07:47:00;;;;;;;4.00;2.90;;;15.90;57.40;;;;;;5028751;28;20442;-65
2022/04/25 07:49:28;;;;;;;4.17;2.93;;;16.10;57.80;;;;;;5032239;28;20442;-64
2022/04/25 07:51:56;;;;;;;4.60;3.20;;;16.40;59.00;;;;;;5032715;28;20449;-63
2022/04/25 07:54:24;;;;;;;3.90;2.93;;;16.60;57.00;;;;;;5031648;28;20531;-64
2022/04/25 07:56:52;;;;;;;5.10;3.87;;;16.60;55.60;;;;;;5031951;28;20438;-64
2022/04/25 07:59:19;;;;;;;7.27;4.50;;;16.50;55.40;;;;;;5031962;28;20500;-64
2022/04/25 08:01:46;;;;;;;4.90;3.33;;;16.50;55.60;;;;;;5031412;28;20448;-65
2022/04/25 08:04:14;;;;;;;7.37;4.13;;;16.70;56.50;;;;;;5031524;28;21039;-65
2022/04/25 08:06:41;;;;;;;6.67;3.83;;;17.00;56.10;;;;;;5031787;28;20500;-64
2022/04/25 08:09:08;;;;;;;4.73;3.80;;;17.20;55.20;;;;;;5031946;28;20453;-64
2022/04/25 08:11:37;;;;;;;5.20;3.30;;;17.20;53.60;;;;;;5031313;28;20500;-64
2022/04/25 08:19:41;;;;;;;5.17;3.40;;;16.80;51.60;;;;;;5031066;28;20461;-64
2022/04/25 08:22:09;;;;;;;4.00;3.00;;;16.60;51.10;;;;;;5030786;28;20441;-64
2022/04/25 08:24:37;;;;;;;5.40;4.20;;;16.50;51.50;;;;;;5031058;28;20844;-64
2022/04/25 08:27:06;;;;;;;5.70;3.60;;;16.50;52.10;;;;;;5031409;28;20533;-64
2022/04/25 08:29:34;;;;;;;5.30;2.83;;;16.40;52.60;;;;;;5031100;28;20441;-63
2022/04/25 08:32:01;;;;;;;4.10;3.50;;;16.40;52.20;;;;;;5030960;28;20456;-64
2022/04/25 08:34:28;;;;;;;3.93;3.47;;;16.30;51.50;;;;;;5031153;28;20551;-65
2022/04/25 08:36:55;;;;;;;6.17;4.30;;;16.20;51.40;;;;;;5031335;28;20449;-64
2022/04/25 08:39:22;;;;;;;4.80;3.60;;;15.90;51.50;;;;;;5031366;28;20449;-64
2022/04/25 08:41:54;;;;;;;5.70;5.00;;;15.80;51.40;;;;;;5030721;28;20501;-64
2022/04/25 08:44:24;;;;;;;5.93;3.70;;;15.60;51.80;;;;;;5028950;28;20749;-64
2022/04/25 08:46:54;;;;;;;5.13;3.60;;;15.50;52.20;;;;;;5030775;28;20479;-64
2022/04/25 08:49:22;;;;;;;6.47;4.13;;;15.40;52.80;;;;;;5031117;28;20484;-64
2022/04/25 08:51:58;;;;;;;6.40;4.10;;;15.40;53.70;;;;;;5030686;28;20819;-64
2022/04/25 08:54:29;;;;;;;5.50;4.50;;;15.40;53.90;;;;;;5029363;28;20480;-62
2022/04/25 08:56:56;;;;;;;7.13;4.77;;;15.50;54.80;;;;;;5030808;28;20933;-62
2022/04/25 08:59:26;;;;;;;6.03;4.60;;;15.60;54.30;;;;;;5030436;28;20438;-63
2022/04/25 09:01:54;;;;;;;5.90;4.57;;;15.80;55.10;;;;;;5030336;28;20438;-62
2022/04/25 09:04:21;;;;;;;4.93;4.33;;;15.90;54.20;;;;;;5030334;28;20433;-62
2022/04/25 09:06:50;;;;;;;7.93;5.57;;;16.20;54.30;;;;;;5031056;28;20437;-62
2022/04/25 09:09:18;;;;;;;5.83;4.50;;;16.40;54.30;;;;;;5031142;28;20484;-61
2022/04/25 09:14:31;;;;;;;5.40;4.73;;;17.10;50.60;;;;;;5030699;28;20556;-63
2022/04/25 09:16:59;;;;;;;7.20;6.50;;;17.60;50.50;;;;;;5030086;28;20442;-62
2022/04/25 09:19:26;;;;;;;7.83;4.80;;;18.00;51.40;;;;;;5028845;28;20460;-62
2022/04/25 09:21:53;;;;;;;6.00;5.30;;;18.50;50.70;;;;;;5030511;28;20449;-63
2022/04/25 09:24:22;;;;;;;5.33;4.60;;;18.90;49.20;;;;;;5030238;28;20434;-63
2022/04/25 09:26:52;;;;;;;5.90;4.20;;;19.10;47.40;;;;;;5029964;28;20444;-62
2022/04/25 09:29:25;;;;;;;5.57;4.90;;;19.30;46.30;;;;;;5032313;28;20442;-62
2022/04/25 09:31:54;;;;;;;6.13;4.73;;;19.20;44.80;;;;;;5034637;28;20793;-65
2022/04/25 09:37:02;;;;;;;6.13;4.77;;;18.80;42.50;;;;;;5031929;28;20475;-65
2022/04/25 09:39:30;;;;;;;5.23;3.90;;;18.40;42.70;;;;;;5033766;28;20442;-64
2022/04/25 09:41:57;;;;;;;5.10;3.73;;;18.10;42.90;;;;;;5033750;28;20545;-64
2022/04/25 09:44:25;;;;;;;6.13;4.63;;;17.90;43.30;;;;;;5033694;28;20445;-65
2022/04/25 09:46:52;;;;;;;5.67;4.80;;;17.80;44.40;;;;;;5032664;28;20998;-62
2022/04/25 09:49:21;;;;;;;5.10;3.90;;;18.00;47.10;;;;;;5034359;28;20540;-62
2022/04/25 09:52:00;;;;;;;6.53;5.57;;;18.30;47.80;;;;;;5034186;28;20446;-62
2022/04/25 09:54:28;;;;;;;6.67;4.73;;;18.60;44.70;;;;;;5033293;28;20488;-62
2022/04/25 09:56:56;;;;;;;8.00;4.47;;;18.90;47.70;;;;;;5035141;28;20437;-64
2022/04/25 09:59:23;;;;;;;6.43;5.03;;;19.20;46.00;;;;;;5034533;28;20449;-62
2022/04/25 10:02:04;;;;;;;5.70;4.73;;;19.50;42.00;;;;;;5035102;28;20504;-62
2022/04/25 10:04:35;;;;;;;8.00;5.10;;;19.00;39.20;;;;;;5035228;28;20978;-62
2022/04/25 10:07:03;;;;;;;5.97;5.30;;;18.60;40.10;;;;;;5035065;28;20437;-62
2022/04/25 10:09:31;;;;;;;5.57;4.50;;;18.50;41.30;;;;;;5035250;28;20936;-63
2022/04/25 10:12:01;;;;;;;5.80;4.60;;;18.40;41.40;;;;;;5034624;28;20446;-62
2022/04/25 10:14:28;;;;;;;9.93;4.70;;;18.50;42.10;;;;;;5035118;28;20482;-63
2022/04/25 10:16:57;;;;;;;7.60;5.00;;;18.60;44.00;;;;;;5035124;28;20503;-62
2022/04/25 10:19:24;;;;;;;6.07;4.97;;;18.90;44.10;;;;;;5035139;28;20445;-61
2022/04/25 10:21:54;;;;;;;5.37;4.57;;;19.10;42.90;;;;;;5034433;28;20537;-62
2022/04/25 10:24:22;;;;;;;6.13;5.00;;;19.20;41.40;;;;;;5034582;28;20442;-62
2022/04/25 10:26:50;;;;;;;7.37;5.30;;;19.30;42.00;;;;;;5034947;28;20438;-62
2022/04/25 10:29:22;;;;;;;6.60;4.90;;;19.30;42.50;;;;;;5034231;28;20445;-62
2022/04/25 10:31:51;;;;;;;5.97;4.90;;;19.30;42.10;;;;;;5033829;28;20438;-63
2022/04/25 10:34:18;;;;;;;6.17;5.20;;;19.30;43.60;;;;;;5034385;28;20477;-62
2022/04/25 10:36:48;;;;;;;8.83;5.20;;;19.50;45.00;;;;;;5034261;28;20465;-63
2022/04/25 10:39:18;;;;;;;5.90;5.27;;;19.80;45.60;;;;;;5034541;28;20529;-63
2022/04/25 10:44:53;;;;;;;5.33;4.77;;;20.60;44.50;;;;;;5024985;28;20547;-63
2022/04/25 10:47:22;;;;;;;6.00;5.00;;;21.10;43.30;;;;;;5030905;28;20492;-65
2022/04/25 10:49:59;;;;;;;8.27;4.80;;;21.30;42.30;;;;;;5032099;28;20442;-63
2022/04/25 10:53:01;;;;;;;7.20;5.20;;;21.20;39.20;;;;;;5029493;28;20503;-62
2022/04/25 10:55:47;;;;;;;5.53;4.93;;;21.20;38.30;;;;;;5029790;28;21032;-63
2022/04/25 10:58:21;;;;;;;4.97;4.00;;;21.10;37.40;;;;;;5033057;28;20537;-63
2022/04/25 11:00:53;;;;;;;4.87;4.00;;;21.10;38.60;;;;;;5031751;28;20479;-63
2022/04/25 11:03:26;;;;;;;5.30;4.07;;;21.30;39.70;;;;;;5033003;28;20437;-63
2022/04/25 11:05:56;;;;;;;11.97;5.33;;;21.60;38.90;;;;;;5033479;28;20504;-62
2022/04/25 11:08:31;;;;;;;4.50;4.03;;;21.90;38.40;;;;;;5033373;28;20504;-63
2022/04/25 11:11:25;;;;;;;5.47;4.57;;;22.20;38.30;;;;;;5032952;28;20442;-63
2022/04/25 11:14:17;;;;;;;6.57;5.23;;;22.10;36.70;;;;;;5018984;28;20460;-63
2022/04/25 11:17:15;;;;;;;5.93;5.17;;;21.80;38.20;;;;;;5033308;28;20434;-68
2022/04/25 11:19:48;;;;;;;8.67;5.87;;;21.50;38.10;;;;;;5029600;28;20543;-62
2022/04/25 11:22:54;;;;;;;6.47;5.50;;;21.00;37.80;;;;;;5026293;28;20500;-62
2022/04/25 11:25:39;;;;;;;7.37;5.33;;;20.60;39.20;;;;;;5033738;28;20460;-63
2022/04/25 11:28:10;;;;;;;6.97;6.30;;;20.10;39.40;;;;;;5031951;28;20433;-63
2022/04/25 11:30:37;;;;;;;8.37;5.77;;;19.80;38.90;;;;;;5033636;28;20446;-62
2022/04/25 11:33:05;;;;;;;6.80;5.50;;;19.60;39.90;;;;;;5033951;28;20778;-63
2022/04/25 11:35:33;;;;;;;6.47;5.77;;;19.50;40.60;;;;;;5033713;28;20517;-63
2022/04/25 11:38:00;;;;;;;6.00;5.43;;;19.60;41.20;;;;;;5033263;28;20917;-63
2022/04/25 11:40:28;;;;;;;5.73;5.00;;;19.90;43.30;;;;;;5033036;28;20430;-62
2022/04/25 11:42:56;;;;;;;5.50;5.00;;;20.30;43.50;;;;;;5033381;28;20847;-64
2022/04/25 11:45:24;;;;;;;7.30;5.50;;;20.80;44.20;;;;;;5032420;28;20430;-64
2022/04/25 11:47:51;;;;;;;5.83;5.30;;;21.20;43.90;;;;;;5032868;28;20445;-63
2022/04/25 11:50:21;;;;;;;5.60;5.00;;;21.50;42.50;;;;;;5032783;28;20859;-63
2022/04/25 11:52:51;;;;;;;5.27;4.77;;;21.70;41.40;;;;;;5033285;28;20479;-63
2022/04/25 11:55:19;;;;;;;5.30;4.80;;;21.80;38.70;;;;;;5032773;28;20513;-62
2022/04/25 11:57:46;;;;;;;6.67;5.43;;;21.90;39.70;;;;;;5033171;28;20438;-63
2022/04/25 12:00:16;;;;;;;5.53;4.90;;;22.00;39.20;;;;;;5031845;28;20442;-62
2022/04/25 12:02:46;;;;;;;5.60;4.20;;;22.10;35.60;;;;;;5032310;28;20460;-63
2022/04/25 12:05:13;;;;;;;6.50;5.50;;;22.00;37.40;;;;;;5032207;28;20521;-62
2022/04/25 12:15:58;;;;;;;5.23;4.23;;;21.60;35.60;;;;;;5033139;28;20882;-62
2022/04/25 12:18:29;;;;;;;5.73;5.13;;;21.50;36.00;;;;;;5032316;28;20986;-62
2022/04/25 12:21:03;;;;;;;4.90;4.17;;;21.30;35.90;;;;;;5032828;28;20488;-63
2022/04/25 12:23:31;;;;;;;5.50;4.43;;;21.20;34.70;;;;;;5032560;28;20441;-63
2022/04/25 12:26:03;;;;;;;5.17;4.30;;;20.90;34.30;;;;;;5032935;28;20929;-63
2022/04/25 12:28:31;;;;;;;5.70;5.07;;;20.70;35.90;;;;;;5032798;28;20437;-62
2022/04/25 12:31:05;;;;;;;4.70;4.17;;;20.60;36.40;;;;;;5032845;28;20525;-63
2022/04/25 12:33:36;;;;;;;6.50;4.40;;;20.40;36.50;;;;;;5032363;28;20434;-63
2022/04/25 12:36:16;;;;;;;4.33;3.93;;;20.30;36.60;;;;;;5032670;28;20531;-62
2022/04/25 12:38:45;;;;;;;5.50;5.00;;;20.00;36.00;;;;;;5032480;28;20438;-62
2022/04/25 12:41:21;;;;;;;6.03;4.93;;;19.70;36.30;;;;;;5032631;28;20500;-63
2022/04/25 12:43:50;;;;;;;6.03;5.43;;;19.40;37.00;;;;;;5032396;28;20768;-62
2022/04/25 12:46:19;;;;;;;9.00;4.50;;;19.20;37.70;;;;;;5032505;28;20442;-63
2022/04/25 12:49:02;;;;;;;5.40;4.90;;;19.20;37.40;;;;;;5032304;28;20438;-62
2022/04/25 12:51:33;;;;;;;6.40;4.50;;;19.10;38.20;;;;;;5032415;28;20442;-63
2022/04/25 12:54:00;;;;;;;6.20;4.70;;;19.10;38.50;;;;;;5032033;28;20485;-63
2022/04/25 12:56:30;;;;;;;5.70;4.73;;;19.10;38.30;;;;;;5032249;28;20572;-63
2022/04/25 12:58:58;;;;;;;6.30;4.77;;;19.10;38.00;;;;;;5031513;28;20438;-64
2022/04/25 13:01:34;;;;;;;4.90;4.30;;;19.00;38.00;;;;;;5032090;28;20931;-68
2022/04/25 13:04:12;;;;;;;4.67;4.07;;;19.00;38.00;;;;;;5031311;28;20454;-63
2022/04/25 13:06:40;;;;;;;5.17;4.00;;;19.00;38.00;;;;;;5032090;28;20479;-62
2022/04/25 13:09:07;;;;;;;5.00;4.50;;;19.00;37.40;;;;;;5031620;28;20445;-63
2022/04/25 13:11:34;;;;;;;5.10;4.23;;;19.00;37.50;;;;;;5031973;28;20504;-63
2022/04/25 13:14:03;;;;;;;6.73;4.43;;;19.00;37.40;;;;;;5031631;28;21020;-65
2022/04/25 13:16:30;;;;;;;7.53;5.20;;;19.00;37.70;;;;;;5032016;28;20481;-63
2022/04/25 13:18:58;;;;;;;5.87;4.40;;;18.90;37.20;;;;;;5032211;28;20504;-62
2022/04/25 13:21:27;;;;;;;6.60;5.10;;;18.70;36.50;;;;;;5032305;28;20496;-62
2022/04/25 13:23:54;;;;;;;6.13;5.53;;;18.50;37.80;;;;;;5031952;28;20546;-62
2022/04/25 13:26:22;;;;;;;6.07;5.13;;;18.50;38.40;;;;;;5032210;28;20500;-63
2022/04/25 13:28:50;;;;;;;6.87;5.60;;;18.50;38.10;;;;;;5031376;28;20438;-63
2022/04/25 13:31:18;;;;;;;6.83;5.27;;;18.20;37.70;;;;;;5031590;28;20445;-63
2022/04/25 13:33:45;;;;;;;6.83;4.50;;;18.00;38.50;;;;;;5031173;28;20483;-62
2022/04/25 13:36:12;;;;;;;7.23;5.87;;;17.70;39.70;;;;;;5032018;28;20496;-63